createdAt,value
2018-07-04T00:01:41.233Z,101115.61
2018-07-04T00:04:20.113Z,101123.86
2018-07-04T00:06:58.997Z,101129.09
2018-07-04T00:09:37.823Z,101126.89
2018-07-04T00:12:16.816Z,101134.56
2018-07-04T00:14:55.865Z,101134.71
2018-07-04T00:17:34.816Z,101141.38
2018-07-04T00:20:13.649Z,101143.57
2018-07-04T00:22:52.577Z,101145.52
2018-07-04T00:25:31.580Z,101146.70
2018-07-04T00:28:10.369Z,101154.36
2018-07-04T00:30:49.211Z,101151.45
2018-07-04T00:33:28.034Z,101156.55
2018-07-04T00:36:06.962Z,101163.34
2018-07-04T00:38:45.832Z,101166.59
2018-07-04T00:41:24.653Z,101164.89
2018-07-04T00:44:03.569Z,101167.30
2018-07-04T00:46:42.426Z,101166.61
2018-07-04T00:49:21.101Z,101163.33
2018-07-04T00:52:00.070Z,101165.37
2018-07-04T00:54:39.286Z,101167.16
2018-07-04T00:57:18.063Z,101162.91
2018-07-04T00:59:56.957Z,101169.42
2018-07-04T01:02:35.850Z,101168.47
2018-07-04T01:05:14.910Z,101171.34
2018-07-04T01:07:53.883Z,101160.59
2018-07-04T01:10:33.290Z,101158.27
2018-07-04T01:13:12.323Z,101152.45
2018-07-04T01:15:51.141Z,101155.11
2018-07-04T01:18:30.037Z,101157.74
2018-07-04T01:21:11.913Z,101160.18
2018-07-04T01:23:51.244Z,101161.61
2018-07-04T01:26:30.233Z,101150.94
2018-07-04T01:29:08.938Z,101161.81
2018-07-04T01:31:47.871Z,101163.34
2018-07-04T01:34:26.692Z,101169.63
2018-07-04T01:37:05.742Z,101167.70
2018-07-04T01:39:44.629Z,101166.91
2018-07-04T01:42:23.549Z,101171.36
2018-07-04T01:45:02.496Z,101160.85
2018-07-04T01:47:41.523Z,101162.78
2018-07-04T01:50:20.262Z,101163.41
2018-07-04T01:52:59.109Z,101167.22
2018-07-04T01:55:38.027Z,101167.08
2018-07-04T01:58:16.896Z,101159.16
2018-07-04T02:00:55.773Z,101163.23
2018-07-04T02:03:34.715Z,101181.48
2018-07-04T02:06:13.501Z,101169.84
2018-07-04T02:08:52.417Z,101175.88
2018-07-04T02:11:31.309Z,101180.52
2018-07-04T02:14:10.082Z,101177.86
2018-07-04T02:16:49.109Z,101178.64
2018-07-04T02:19:27.859Z,101176.66
2018-07-04T02:22:06.716Z,101176.79
2018-07-04T02:24:45.711Z,101167.36
2018-07-04T02:27:24.853Z,101175.83
2018-07-04T02:30:03.760Z,101174.38
2018-07-04T02:32:42.462Z,101172.53
2018-07-04T02:35:21.479Z,101171.49
2018-07-04T02:38:00.426Z,101163.70
2018-07-04T02:40:39.493Z,101150.34
2018-07-04T02:43:18.356Z,101156.31
2018-07-04T02:45:57.278Z,101152.45
2018-07-04T02:48:36.231Z,101157.55
2018-07-04T02:51:15.150Z,101156.72
2018-07-04T02:53:54.033Z,101150.44
2018-07-04T02:56:32.770Z,101144.91
2018-07-04T02:59:11.662Z,101142.87
2018-07-04T03:01:50.631Z,101139.29
2018-07-04T03:04:29.646Z,101143.73
2018-07-04T03:07:08.557Z,101144.48
2018-07-04T03:09:47.259Z,101150.77
2018-07-04T03:12:26.177Z,101147.95
2018-07-04T03:15:05.168Z,101153.34
2018-07-04T03:17:44.223Z,101142.33
2018-07-04T03:20:23.087Z,101145.41
2018-07-04T03:23:02.025Z,101148.98
2018-07-04T03:25:40.937Z,101134.63
2018-07-04T03:28:19.869Z,101140.68
2018-07-04T03:30:58.854Z,101145.58
2018-07-04T03:33:37.735Z,101141.86
2018-07-04T03:36:16.621Z,101133.42
2018-07-04T03:38:55.445Z,101131.14
2018-07-04T03:41:34.411Z,101127.12
2018-07-04T03:44:13.301Z,101122.97
2018-07-04T03:46:52.122Z,101126.75
2018-07-04T03:49:31.005Z,101135.09
2018-07-04T03:52:09.778Z,101131.22
2018-07-04T03:54:48.666Z,101135.02
2018-07-04T03:57:27.565Z,101135.37
2018-07-04T04:00:06.274Z,101140.39
2018-07-04T04:02:45.117Z,101127.47
2018-07-04T04:05:24.077Z,101132.84
2018-07-04T04:08:02.978Z,101124.06
2018-07-04T04:10:41.909Z,101129.58
2018-07-04T04:13:20.825Z,101083.62
2018-07-04T04:15:59.766Z,101142.89
2018-07-04T04:18:45.729Z,101131.77
2018-07-04T04:21:24.625Z,101136.53
2018-07-04T04:24:03.381Z,101138.25
2018-07-04T04:26:42.257Z,101119.35
2018-07-04T04:29:21.106Z,101116.83
2018-07-04T04:32:00.023Z,101124.08
2018-07-04T04:34:38.873Z,101122.36
2018-07-04T04:37:17.753Z,101117.30
2018-07-04T04:39:56.590Z,101109.78
2018-07-04T04:42:35.514Z,101121.10
2018-07-04T04:45:14.419Z,101113.58
2018-07-04T04:47:53.185Z,101112.16
2018-07-04T04:50:32.175Z,101101.82
2018-07-04T04:53:11.013Z,101110.02
2018-07-04T04:55:49.930Z,101104.55
2018-07-04T04:58:28.690Z,101097.63
2018-07-04T05:01:07.603Z,101090.08
2018-07-04T05:03:46.332Z,101089.56
2018-07-04T05:06:25.222Z,101101.73
2018-07-04T05:09:04.335Z,101087.71
2018-07-04T05:11:43.259Z,101093.33
2018-07-04T05:14:22.100Z,101093.68
2018-07-04T05:17:01.010Z,101088.67
2018-07-04T05:19:40.044Z,101087.18
2018-07-04T05:22:18.985Z,101093.75
2018-07-04T05:24:58.005Z,101087.17
2018-07-04T05:27:36.937Z,101080.83
2018-07-04T05:30:15.737Z,101086.63
2018-07-04T05:32:54.637Z,101088.73
2018-07-04T05:35:33.507Z,101081.92
2018-07-04T05:38:12.441Z,101091.94
2018-07-04T05:40:51.426Z,101062.98
2018-07-04T05:43:30.346Z,101067.60
2018-07-04T05:46:09.270Z,101080.26
2018-07-04T05:48:48.153Z,101084.48
2018-07-04T05:51:27.001Z,101090.33
2018-07-04T05:54:05.777Z,101092.16
2018-07-04T05:56:44.565Z,101088.21
2018-07-04T05:59:23.442Z,101073.07
2018-07-04T06:02:02.173Z,101056.95
2018-07-04T06:04:41.026Z,101076.05
2018-07-04T06:07:19.946Z,101066.90
2018-07-04T06:09:58.698Z,101069.45
2018-07-04T06:12:37.726Z,101061.17
2018-07-04T06:15:16.462Z,101051.11
2018-07-04T06:17:55.398Z,100612.16
2018-07-04T06:20:34.411Z,101048.20
2018-07-04T06:23:13.382Z,101064.78
2018-07-04T06:25:52.250Z,101065.34
2018-07-04T06:28:31.098Z,101059.71
2018-07-04T06:31:09.883Z,101058.94
2018-07-04T06:33:48.925Z,101066.99
2018-07-04T06:36:27.627Z,101067.14
2018-07-04T06:38:54.065Z,101078.98
2018-07-04T06:41:20.515Z,101078.43
2018-07-04T06:43:46.949Z,101073.44
2018-07-04T06:46:13.385Z,101067.10
2018-07-04T06:48:39.805Z,101062.38
2018-07-04T06:51:06.234Z,101057.33
2018-07-04T06:53:32.929Z,101063.30
2018-07-04T06:55:59.368Z,101059.12
2018-07-04T06:58:25.793Z,101066.09
2018-07-04T07:00:52.247Z,101055.31
2018-07-04T07:03:31.069Z,101051.66
2018-07-04T07:06:10.056Z,101048.98
2018-07-04T07:08:48.944Z,101029.25
2018-07-04T07:11:27.981Z,101042.33
2018-07-04T07:14:06.868Z,101042.12
2018-07-04T07:16:45.611Z,101043.98
2018-07-04T07:19:24.593Z,101043.53
2018-07-04T07:22:03.391Z,101031.68
2018-07-04T07:24:42.323Z,101042.73
2018-07-04T07:27:21.117Z,101049.97
2018-07-04T07:30:00.152Z,101045.76
2018-07-04T07:32:38.897Z,101059.71
2018-07-04T07:35:17.686Z,101048.16
2018-07-04T07:37:57.636Z,101045.00
2018-07-04T07:40:36.567Z,101057.03
2018-07-04T07:43:15.541Z,101050.58
2018-07-04T07:45:54.289Z,101042.57
2018-07-04T07:48:33.154Z,101044.06
2018-07-04T07:51:11.921Z,101046.27
2018-07-04T07:53:50.734Z,101044.31
2018-07-04T07:56:29.716Z,101048.88
2018-07-04T07:59:08.581Z,101032.34
2018-07-04T08:01:47.552Z,101032.00
2018-07-04T08:04:26.426Z,101034.06
2018-07-04T08:07:05.298Z,101045.50
2018-07-04T08:09:44.227Z,101031.66
2018-07-04T08:12:23.178Z,101041.34
2018-07-04T08:15:01.988Z,101024.11
2018-07-04T08:17:40.946Z,101025.38
2018-07-04T08:20:19.716Z,101032.97
2018-07-04T08:22:58.590Z,101012.05
2018-07-04T08:25:37.354Z,101025.38
2018-07-04T08:28:16.209Z,101025.09
2018-07-04T08:30:55.069Z,101011.39
2018-07-04T08:33:33.931Z,101007.00
2018-07-04T08:36:12.997Z,101007.45
2018-07-04T08:38:51.876Z,101014.91
2018-07-04T08:41:31.010Z,101003.37
2018-07-04T08:44:09.919Z,101002.23
2018-07-04T08:46:48.828Z,100997.72
2018-07-04T08:49:27.764Z,100995.77
2018-07-04T08:52:06.762Z,100986.34
2018-07-04T08:54:45.540Z,100990.28
2018-07-04T08:57:24.497Z,100980.35
2018-07-04T09:00:03.430Z,100995.13
2018-07-04T09:02:42.368Z,100978.22
2018-07-04T09:05:21.382Z,100966.19
2018-07-04T09:08:00.192Z,100978.16
2018-07-04T09:10:38.965Z,100969.91
2018-07-04T09:13:17.854Z,100974.91
2018-07-04T09:15:56.859Z,100975.45
2018-07-04T09:18:35.869Z,100970.73
2018-07-04T09:21:14.750Z,100981.03
2018-07-04T09:23:53.666Z,100981.66
2018-07-04T09:26:32.634Z,100971.66
2018-07-04T09:29:11.497Z,100938.22
2018-07-04T09:31:50.540Z,100971.02
2018-07-04T09:34:29.506Z,100964.61
2018-07-04T09:37:08.233Z,100959.83
2018-07-04T09:39:47.342Z,100962.77
2018-07-04T09:42:26.295Z,100978.02
2018-07-04T09:45:05.306Z,100956.38
2018-07-04T09:47:44.220Z,100961.31
2018-07-04T09:50:23.069Z,100951.60
2018-07-04T09:53:01.781Z,100958.53
2018-07-04T09:55:40.714Z,100970.33
2018-07-04T09:58:19.516Z,100957.51
2018-07-04T10:01:03.942Z,100942.80
2018-07-04T10:03:42.726Z,100953.06
2018-07-04T10:06:21.499Z,100957.59
2018-07-04T10:09:00.354Z,100943.02
2018-07-04T10:11:39.241Z,100941.03
2018-07-04T10:14:18.022Z,100939.53
2018-07-04T10:16:57.008Z,100926.92
2018-07-04T10:19:35.945Z,100925.67
2018-07-04T10:22:15.067Z,100927.01
2018-07-04T10:24:53.882Z,100924.08
2018-07-04T10:27:32.663Z,100920.78
2018-07-04T10:30:11.557Z,100921.30
2018-07-04T10:32:50.488Z,100920.75
2018-07-04T10:35:29.362Z,100920.31
2018-07-04T10:38:08.295Z,100909.64
2018-07-04T10:40:47.711Z,100914.91
2018-07-04T10:43:26.615Z,100912.22
2018-07-04T10:46:05.580Z,100906.28
2018-07-04T10:48:44.382Z,100905.41
2018-07-04T10:51:23.209Z,100909.04
2018-07-04T10:54:01.882Z,100899.83
2018-07-04T10:56:40.737Z,100889.45
2018-07-04T10:59:19.497Z,100898.44
2018-07-04T11:01:58.438Z,100900.88
2018-07-04T11:04:37.268Z,100904.56
2018-07-04T11:07:16.370Z,100885.97
2018-07-04T11:09:55.289Z,100894.75
2018-07-04T11:12:34.603Z,100891.31
2018-07-04T11:15:13.540Z,100896.59
2018-07-04T11:17:52.408Z,100899.66
2018-07-04T11:20:31.314Z,100896.21
2018-07-04T11:23:10.176Z,100881.64
2018-07-04T11:25:49.053Z,100883.16
2018-07-04T11:28:27.950Z,100882.19
2018-07-04T11:31:06.805Z,100904.00
2018-07-04T11:33:45.537Z,100886.09
2018-07-04T11:36:24.573Z,100891.09
2018-07-04T11:39:03.617Z,100886.43
2018-07-04T11:41:42.293Z,100883.27
2018-07-04T11:44:21.205Z,100878.31
2018-07-04T11:46:47.638Z,100879.69
2018-07-04T11:49:14.088Z,100879.79
2018-07-04T11:51:40.522Z,100877.95
2018-07-04T11:54:07.192Z,100897.81
2018-07-04T11:56:33.696Z,100870.92
2018-07-04T11:59:00.110Z,100886.77
2018-07-04T12:01:26.542Z,100889.30
2018-07-04T12:04:05.466Z,100892.30
2018-07-04T12:06:44.479Z,100882.03
2018-07-04T12:09:10.911Z,100884.95
2018-07-04T12:11:37.358Z,100878.25
2018-07-04T12:14:03.810Z,100875.67
2018-07-04T12:16:30.266Z,100877.66
2018-07-04T12:18:56.714Z,100874.30
2018-07-04T12:21:23.162Z,100871.16
2018-07-04T12:23:49.629Z,100870.47
2018-07-04T12:26:16.101Z,100870.98
2018-07-04T12:28:42.548Z,100872.20
2018-07-04T12:31:09.014Z,100867.70
2018-07-04T12:33:35.470Z,100867.34
2018-07-04T12:36:01.947Z,100869.97
2018-07-04T12:38:28.401Z,100873.98
2018-07-04T12:40:54.868Z,100876.87
2018-07-04T12:43:21.502Z,100872.00
2018-07-04T12:45:47.975Z,100872.39
2018-07-04T12:48:14.427Z,100883.80
2018-07-04T12:50:40.926Z,100882.74
2018-07-04T12:53:07.407Z,100879.91
2018-07-04T12:55:46.395Z,100873.23
2018-07-04T12:58:25.435Z,100879.19
2018-07-04T13:01:04.338Z,100878.70
2018-07-04T13:03:43.274Z,100875.61
2018-07-04T13:06:22.658Z,100878.80
2018-07-04T13:09:01.830Z,100874.94
2018-07-04T13:11:40.783Z,100874.48
2018-07-04T13:14:19.625Z,100876.71
2018-07-04T13:16:58.709Z,100875.84
2018-07-04T13:19:37.725Z,100862.91
2018-07-04T13:22:16.685Z,100870.33
2018-07-04T13:24:55.782Z,100857.58
2018-07-04T13:27:34.741Z,100868.30
2018-07-04T13:30:13.618Z,100867.45
2018-07-04T13:32:52.529Z,100859.40
2018-07-04T13:35:31.431Z,100859.17
2018-07-04T13:38:10.483Z,100856.83
2018-07-04T13:40:49.275Z,100851.44
2018-07-04T13:43:28.599Z,100854.42
2018-07-04T13:46:07.647Z,100854.08
2018-07-04T13:48:46.495Z,100863.02
2018-07-04T13:51:25.438Z,100850.79
2018-07-04T13:54:04.334Z,100853.14
2018-07-04T13:56:43.333Z,100850.44
2018-07-04T13:59:22.434Z,100848.09
2018-07-04T14:02:01.266Z,100848.77
2018-07-04T14:04:40.196Z,100852.95
2018-07-04T14:07:19.082Z,100858.52
2018-07-04T14:09:57.955Z,100852.96
2018-07-04T14:12:36.790Z,100851.81
2018-07-04T14:15:15.697Z,100848.94
2018-07-04T14:17:54.641Z,100845.91
2018-07-04T14:20:33.419Z,100850.13
2018-07-04T14:23:12.308Z,100852.84
2018-07-04T14:25:51.235Z,100851.81
2018-07-04T14:28:30.337Z,100852.48
2018-07-04T14:31:09.198Z,100861.89
2018-07-04T14:33:47.921Z,100854.35
2018-07-04T14:36:26.819Z,100853.16
2018-07-04T14:39:05.760Z,100852.33
2018-07-04T14:41:45.027Z,100854.52
2018-07-04T14:44:23.821Z,100855.85
2018-07-04T14:47:02.721Z,100857.87
2018-07-04T14:49:41.790Z,100856.53
2018-07-04T14:52:20.638Z,100852.84
2018-07-04T14:54:59.503Z,100860.61
2018-07-04T14:57:38.367Z,100851.02
2018-07-04T15:00:17.206Z,100863.13
2018-07-04T15:02:56.123Z,100858.74
2018-07-04T15:05:35.111Z,100864.61
2018-07-04T15:08:14.157Z,100862.11
2018-07-04T15:10:52.981Z,100865.13
2018-07-04T15:13:31.917Z,100868.02
2018-07-04T15:16:10.780Z,100871.19
2018-07-04T15:18:49.750Z,100881.63
2018-07-04T15:21:28.765Z,100870.19
2018-07-04T15:24:07.791Z,100872.54
2018-07-04T15:26:46.561Z,100872.73
2018-07-04T15:29:25.428Z,100878.11
2018-07-04T15:32:04.290Z,100877.63
2018-07-04T15:34:43.161Z,100784.92
2018-07-04T15:37:22.125Z,100875.94
2018-07-04T15:40:01.030Z,100872.39
2018-07-04T15:42:39.984Z,100869.21
2018-07-04T15:45:18.968Z,100874.41
2018-07-04T15:47:57.922Z,100884.16
2018-07-04T15:50:36.797Z,100875.41
2018-07-04T15:53:15.569Z,100880.80
2018-07-04T15:55:54.362Z,100889.39
2018-07-04T15:58:33.237Z,100886.18
2018-07-04T16:01:12.026Z,100885.35
2018-07-04T16:03:50.918Z,100883.16
2018-07-04T16:06:29.854Z,100890.55
2018-07-04T16:09:08.801Z,100894.10
2018-07-04T16:11:47.575Z,100896.61
2018-07-04T16:14:26.461Z,100891.08
2018-07-04T16:17:05.400Z,100888.88
2018-07-04T16:19:44.534Z,100892.91
2018-07-04T16:22:23.566Z,100903.18
2018-07-04T16:25:02.685Z,100899.62
2018-07-04T16:27:41.559Z,100901.98
2018-07-04T16:30:20.841Z,100903.48
2018-07-04T16:32:59.806Z,100892.56
2018-07-04T16:35:38.742Z,100899.62
2018-07-04T16:38:17.394Z,100893.73
2018-07-04T16:40:56.313Z,100888.86
2018-07-04T16:43:35.181Z,100888.53
2018-07-04T16:46:14.136Z,100893.58
2018-07-04T16:48:53.005Z,100895.59
2018-07-04T16:51:31.837Z,100893.23
2018-07-04T16:54:10.806Z,100892.03
2018-07-04T16:56:49.694Z,100815.64
2018-07-04T16:59:28.629Z,100888.19
2018-07-04T17:02:07.548Z,100882.62
2018-07-04T17:04:46.425Z,100885.17
2018-07-04T17:07:25.293Z,100882.62
2018-07-04T17:10:04.039Z,100878.77
2018-07-04T17:12:42.971Z,100878.91
2018-07-04T17:15:22.122Z,100882.06
2018-07-04T17:18:00.809Z,100879.16
2018-07-04T17:20:39.846Z,100886.56
2018-07-04T17:23:18.726Z,100883.41
2018-07-04T17:25:57.701Z,100886.64
2018-07-04T17:28:36.543Z,100880.75
2018-07-04T17:31:15.474Z,100886.16
2018-07-04T17:33:54.389Z,100887.17
2018-07-04T17:36:33.137Z,100884.97
2018-07-04T17:39:12.108Z,100891.20
2018-07-04T17:41:50.996Z,100886.16
2018-07-04T17:46:53.362Z,100886.31
2018-07-04T17:49:33.463Z,100884.43
2018-07-04T17:52:12.280Z,100878.91
2018-07-04T17:54:51.137Z,100879.44
2018-07-04T17:57:29.892Z,100875.75
2018-07-04T18:00:08.806Z,100876.23
2018-07-04T18:02:47.758Z,100875.70
2018-07-04T18:05:26.661Z,100870.84
2018-07-04T18:08:05.665Z,100876.02
2018-07-04T18:10:44.651Z,100872.50
2018-07-04T18:13:23.453Z,100876.68
2018-07-04T18:16:02.486Z,100871.29
2018-07-04T18:18:41.496Z,100868.27
2018-07-04T18:21:24.025Z,100872.96
2018-07-04T18:24:03.369Z,100879.36
2018-07-04T18:26:42.225Z,100882.25
2018-07-04T18:29:21.234Z,100873.66
2018-07-04T18:32:03.750Z,100877.34
2018-07-04T18:34:42.549Z,100872.30
2018-07-04T18:37:21.477Z,100876.66
2018-07-04T18:40:00.368Z,100873.12
2018-07-04T18:42:39.258Z,100868.92
2018-07-04T18:45:18.109Z,100868.58
2018-07-04T18:47:57.090Z,100866.39
2018-07-04T18:50:36.202Z,100863.83
2018-07-04T18:53:14.991Z,100865.98
2018-07-04T18:55:54.562Z,100861.85
2018-07-04T18:58:33.541Z,100864.88
2018-07-04T19:01:12.361Z,100872.94
2018-07-04T19:03:51.253Z,100886.89
2018-07-04T19:06:30.333Z,100894.94
2018-07-04T19:09:09.309Z,100896.64
2018-07-04T19:11:48.223Z,100907.72
2018-07-04T19:14:27.149Z,100908.42
2018-07-04T19:17:06.058Z,100916.66
2018-07-04T19:19:45.022Z,100928.11
2018-07-04T19:22:24.033Z,100927.47
2018-07-04T19:25:02.935Z,100934.05
2018-07-04T19:27:41.925Z,100931.87
2018-07-04T19:30:20.669Z,100934.73
2018-07-04T19:32:59.893Z,100946.99
2018-07-04T19:35:38.656Z,100948.30
2018-07-04T19:38:17.965Z,100951.59
2018-07-04T19:40:56.825Z,100951.08
2018-07-04T19:43:35.953Z,100945.30
2018-07-04T19:46:15.141Z,100943.69
2018-07-04T19:48:54.585Z,100952.25
2018-07-04T19:51:33.455Z,100957.06
2018-07-04T19:54:12.637Z,100956.13
2018-07-04T19:56:51.493Z,100966.73
2018-07-04T19:59:30.497Z,100969.55
2018-07-04T20:02:09.349Z,100976.48
2018-07-04T20:04:48.145Z,100982.21
2018-07-04T20:07:27.147Z,100976.81
2018-07-04T20:10:06.190Z,100980.56
2018-07-04T20:12:45.033Z,100986.20
2018-07-04T20:15:24.062Z,100989.64
2018-07-04T20:18:03.112Z,100987.70
2018-07-04T20:20:42.356Z,100983.04
2018-07-04T20:23:21.801Z,100985.03
2018-07-04T20:26:00.750Z,100986.81
2018-07-04T20:28:39.510Z,100994.62
2018-07-04T20:31:18.378Z,100988.07
2018-07-04T20:33:57.201Z,100992.05
2018-07-04T20:36:36.257Z,100991.84
2018-07-04T20:39:15.238Z,100993.94
2018-07-04T20:41:54.159Z,100985.52
2018-07-04T20:44:32.932Z,100979.59
2018-07-04T20:47:11.900Z,100998.97
2018-07-04T20:49:50.894Z,100993.72
2018-07-04T20:52:29.866Z,100990.58
2018-07-04T20:55:08.745Z,100987.20
2018-07-04T20:57:48.094Z,100989.72
2018-07-04T21:00:27.083Z,101001.36
2018-07-04T21:03:05.894Z,101002.31
2018-07-04T21:05:44.741Z,101006.45
2018-07-04T21:08:23.704Z,101012.80
2018-07-04T21:11:02.565Z,101015.66
2018-07-04T21:13:41.521Z,101005.91
2018-07-04T21:16:20.334Z,101008.58
2018-07-04T21:18:59.331Z,100996.03
2018-07-04T21:21:38.193Z,101000.18
2018-07-04T21:24:17.102Z,100995.68
2018-07-04T21:26:56.058Z,100991.66
2018-07-04T21:29:34.961Z,100987.58
2018-07-04T21:32:13.881Z,100984.41
2018-07-04T21:34:52.746Z,100948.28
2018-07-04T21:37:31.697Z,101001.25
2018-07-04T21:40:10.718Z,100998.16
2018-07-04T21:42:49.625Z,101005.20
2018-07-04T21:45:28.592Z,100997.37
2018-07-04T21:48:07.462Z,101004.28
2018-07-04T21:50:46.282Z,100999.42
2018-07-04T21:53:25.319Z,100998.37
2018-07-04T21:56:04.281Z,101002.04
2018-07-04T21:58:43.149Z,100990.35
2018-07-04T22:01:22.263Z,100990.28
2018-07-04T22:04:01.216Z,100990.55
2018-07-04T22:06:40.023Z,100988.29
2018-07-04T22:09:18.795Z,100993.86
2018-07-04T22:11:57.754Z,100990.53
2018-07-04T22:14:36.562Z,100996.52
2018-07-04T22:17:15.448Z,100995.59
2018-07-04T22:19:54.346Z,100989.27
2018-07-04T22:22:33.181Z,100997.84
2018-07-04T22:25:12.027Z,100999.53
2018-07-04T22:27:51.021Z,101004.22
2018-07-04T22:30:29.989Z,101001.31
2018-07-04T22:33:08.983Z,100999.44
2018-07-04T22:35:47.802Z,101000.05
2018-07-04T22:38:26.705Z,100999.37
2018-07-04T22:41:05.602Z,100999.47
2018-07-04T22:43:44.644Z,100995.58
2018-07-04T22:46:23.513Z,101003.20
2018-07-04T22:49:02.394Z,101012.78
2018-07-04T22:51:41.321Z,101007.20
2018-07-04T22:54:20.058Z,101003.70
2018-07-04T22:56:59.002Z,101009.75
2018-07-04T22:59:37.765Z,101008.73
2018-07-04T23:02:16.633Z,101007.36
2018-07-04T23:04:55.530Z,100992.66
2018-07-04T23:07:34.454Z,100996.13
2018-07-04T23:10:13.391Z,100989.09
2018-07-04T23:12:52.198Z,100994.08
2018-07-04T23:15:31.130Z,100992.77
2018-07-04T23:18:10.058Z,100987.81
2018-07-04T23:20:48.937Z,100993.25
2018-07-04T23:23:27.830Z,100991.77
2018-07-04T23:26:06.708Z,100986.98
2018-07-04T23:28:45.654Z,100986.13
2018-07-04T23:31:24.555Z,100981.66
2018-07-04T23:34:03.518Z,100977.95
2018-07-04T23:36:42.510Z,100986.94
2018-07-04T23:39:21.425Z,100989.96
2018-07-04T23:42:00.623Z,100994.86
2018-07-04T23:44:39.462Z,100989.11
2018-07-04T23:47:18.341Z,100983.65
2018-07-04T23:49:57.221Z,100983.77
2018-07-04T23:52:36.097Z,100988.22
2018-07-04T23:55:15.270Z,100978.33
2018-07-04T23:57:54.214Z,100980.63
